x

8461490 - New London, Ct (nlnc3) Weather Station

10:30 - Wed 7th Dec 2016 All times are EST. -5 hours from GMT.

  • Wind
    2mph
  • Sea Temp 51°f
  • Air Temp 41°f
  • Sea Pressure 1015.9mb
  • 8461490 - New London, Ct
  • 8461490 - New London, Ct

More Historic Weather Station data

Upgrade to MSW Pro to gain access to the past 30 days of data for over 8000 Wavebouys and Weather Stations around the globe.

Join Pro

Comparision Forecast

View Surf forecast
   
mer. 12/07 10:30 2
mph
1015.9mb 51f 41f
10:24 1 2 mph 1015.9mb 51f 41f
10:18 1 2 mph 1016mb 51f 42f
10:12 1
mph
1016.1mb 51f 42f
10:06  -  2 mph 1016.1mb 51f 42f
10:00 1 2 mph 1016.2mb 51f 42f
9:54 1 2 mph 1016.2mb 51f 42f
9:48 1 2 mph 1016.1mb 51f 42f
9:42 2
mph
1016.2mb 51f 42f
9:36 1 2 mph 1016.1mb 51f 42f
9:30  -  2 mph 1016.1mb 51f 43f
9:24 2 3 mph 1016mb 51f 43f
9:18 1 2 mph 1016.1mb 51f 43f
9:12 1 3 mph 1016.1mb 51f 42f
9:06  -  3 mph 1016.2mb 51f 42f
9:00 1 2 mph 1016.2mb 51f 43f
8:54  -  2 mph 1016.3mb 51f 43f
8:48 2
mph
1016.3mb 51f 42f
8:42  -  1 mph 1016.4mb 51f 43f
8:36 1 2 mph 1016.4mb 51f 43f
8:30  -  2 mph 1016.6mb 51f 43f
8:24  -  1 mph 1016.6mb 51f 43f
8:18 1 3 mph 1016.7mb 51f 43f
8:12  -  1 mph 1016.6mb 51f 43f
8:06  -  3 mph 1016.5mb 51f 43f
8:00 3 5 mph 1016.5mb 51f 43f
7:54 2
mph
1016.5mb 51f 43f
7:48 2 3 mph 1016.4mb 51f 43f
7:42  -  1 mph 1016.5mb 51f 43f
7:36 2
mph
1016.5mb 52f 43f
7:30 2 3 mph 1016.5mb 52f 43f
7:24 1 3 mph 1016.4mb 52f 43f
7:18 2 5 mph 1016.4mb 52f 43f
7:12  -  2 mph 1016.4mb 52f 43f
7:06 1 3 mph 1016.6mb 51f 43f
7:00 2 3 mph 1016.6mb 51f 43f
6:54  -  3 mph 1016.7mb 51f 43f
6:48 1 2 mph 1016.7mb 51f 43f
6:42 2 3 mph 1016.7mb 51f 44f
6:36 1 3 mph 1016.5mb 51f 44f
6:30 1 2 mph 1016.4mb 51f 44f
6:24 2 5 mph 1016.4mb 51f 44f
6:18 3 5 mph 1016.5mb 51f 44f
6:12 2 6 mph 1016.4mb 51f 44f
6:06 3 7 mph 1016.5mb 51f 44f
6:00 3 7 mph 1016.5mb 52f 44f
5:54 2 6 mph 1016.3mb 52f 44f
5:48 3 6 mph 1016.2mb 51f 44f
5:42 3 6 mph 1016.2mb 51f 44f
5:36 5 7 mph 1016mb 51f 44f
5:30 5 8 mph 1015.9mb 51f 44f
5:24 3 7 mph 1015.9mb 51f 44f
5:18 3 6 mph 1015.8mb 52f 44f
5:12 6 9 mph 1015.6mb 52f 44f
5:06 6 8 mph 1015.6mb 52f 44f
5:00 6 7 mph 1015.6mb 52f 44f
4:54 5 7 mph 1015.4mb 52f 44f
4:48 3 7 mph 1015.2mb 52f 44f
4:42 3 6 mph 1015.1mb 52f 44f
4:36 3 6 mph 1014.9mb 52f 44f
4:30 5 7 mph 1014.9mb 52f 44f
4:24 5 7 mph 1014.8mb 52f 44f
4:18 5 9 mph 1014.9mb 52f 44f
4:12 3 6 mph 1015mb 52f 44f
4:06 6 9 mph 1014.9mb 52f 44f
4:00 6 7 mph 1014.9mb 52f 44f
3:54 5 7 mph 1014.8mb 52f 45f
3:48 3 8 mph 1014.8mb 52f 45f
3:42 6 8 mph 1014.8mb 52f 45f
3:36 5 7 mph 1014.7mb 51f 45f
3:30 6 8 mph 1014.6mb 51f 45f
3:24 6 8 mph 1014.6mb 51f 45f
3:18 6 8 mph 1014.5mb 51f 45f
3:12 5 7 mph 1014.4mb 51f 45f
3:06 5 7 mph 1014.3mb 52f 45f
3:00 5 7 mph 1014.2mb 52f 45f
2:54 5 6 mph 1014.1mb 52f 45f
2:48 6
mph
1013.9mb 52f 45f
2:42 6 7 mph 1014mb 51f 45f
2:36 6 8 mph 1014mb 51f 45f
2:30 6 7 mph 1014.1mb 51f 45f
2:24 7 9 mph 1013.9mb 51f 45f
2:18 7 8 mph 1013.9mb 51f 45f
2:12 6 7 mph 1013.9mb 51f 45f
2:06 5 6 mph 1013.6mb 52f 45f
2:00 3 5 mph 1013.4mb 52f 45f
1:54 2 3 mph 1013.4mb 52f 45f
1:48 2 3 mph 1013.4mb 52f 45f
1:42 2 3 mph 1013.4mb 52f 45f
1:36 1 3 mph 1013.5mb 51f 46f
1:30 2 3 mph 1013.5mb 51f 45f
1:24 2 3 mph 1013.5mb 51f 45f
1:18 2 3 mph 1013.6mb 51f 45f
1:12 3 5 mph 1013.6mb 51f 45f
1:06 2 5 mph 1013.5mb 52f 45f
1:00 3 6 mph 1013.5mb 52f 45f
12:54 3 6 mph 1013.7mb 52f 45f
12:48 3 5 mph 1013.7mb 52f 45f
12:42 3 5 mph 1013.7mb 52f 45f
12:36 2 6 mph 1013.7mb 52f 46f
12:30 5 6 mph 1013.8mb 52f 45f
12:24 3 6 mph 1013.8mb 52f 45f
12:18 5 6 mph 1013.9mb 52f 44f
12:12 5 6 mph 1013.9mb 52f 44f
12:06 5
mph
1013.8mb 52f 44f
12:00 5 6 mph 1013.8mb 52f 44f
11:54 2 5 mph 1013.8mb 52f 44f
11:48 2 5 mph 1013.9mb 52f 44f
11:42 2 5 mph 1014mb 52f 44f
11:36 2 5 mph 1014.2mb 52f 42f
11:30 2 5 mph 1014.5mb 52f 42f
11:24 3 6 mph 1014.8mb 51f 42f
11:18 5 6 mph 1015mb 52f 42f
11:12 2 6 mph 1014.9mb 52f 41f
11:06 6 8 mph 1015.1mb 52f 41f
11:00 5 7 mph 1015.2mb 51f 41f
10:54 5 7 mph 1015.1mb 51f 41f
10:48 6 8 mph 1015.2mb 52f 40f
10:42 5 7 mph 1015.1mb 52f 41f
10:36 2 6 mph 1015.2mb 52f 41f
10:30 5 7 mph 1015.3mb 52f 40f
10:24 3 7 mph 1015.4mb 51f 41f
10:18 5 8 mph 1015.4mb 51f 40f
10:12 5 9 mph 1015.5mb 51f 40f
10:06 5 7 mph 1015.6mb 52f 40f
10:00 5 7 mph 1015.7mb 52f 40f
9:54 3 9 mph 1015.8mb 51f 40f
9:48 3 6 mph 1015.7mb 52f 40f
9:42 5 7 mph 1015.6mb 52f 40f
9:36 5 8 mph 1015.5mb 51f 39f
9:30 5 8 mph 1015.3mb 51f 39f
9:24 6 8 mph 1015.1mb 51f 39f
9:18 6 8 mph 1015mb 51f 39f
9:12 5 8 mph 1014.8mb 51f 39f
9:06 3 8 mph 1014.8mb 51f 39f
9:00 5 8 mph 1014.6mb 51f 39f
8:54 6 9 mph 1014.7mb 51f 39f
8:48 5 8 mph 1014.5mb 51f 38f
8:42 5 8 mph 1014.3mb 51f 38f
8:36 5 9 mph 1014.3mb 51f 38f
8:30 2 8 mph 1014.3mb 51f 38f
8:24 5 8 mph 1014.3mb 51f 38f
8:18 6 9 mph 1014.3mb 51f 38f
8:12 3 7 mph 1014.3mb 51f 38f
8:06 3 8 mph 1014.3mb 52f 38f
8:00 5 9 mph 1014.3mb 52f 38f
7:54 3 6 mph 1014.2mb 52f 38f
7:48 3 8 mph 1014.3mb 52f 38f
7:42 5 9 mph 1014.3mb 52f 38f
7:36 7 13 mph 1014.3mb 52f 38f
7:30 7 9 mph 1014.3mb 52f 38f
7:24 2 7 mph 1014.3mb 52f 38f
7:18 3 8 mph 1014.2mb 51f 38f
7:12 3 8 mph 1014.3mb 51f 38f
7:06 3 9 mph 1014.3mb 51f 38f
7:00 5 8 mph 1014.3mb 52f 38f
6:54 5 8 mph 1014.3mb 52f 38f
6:48 6 9 mph 1014.2mb 52f 38f
6:42 5 8 mph 1014.1mb 52f 38f
6:36 6 10 mph 1014mb 52f 38f
6:30 7 8 mph 1014mb 52f 38f
6:24 6 9 mph 1013.9mb 52f 38f
6:18 6 9 mph 1013.6mb 52f 38f
6:12 3 7 mph 1013.3mb 52f 38f
6:06 6 8 mph 1013mb 52f 38f
6:00 5 7 mph 1013mb 51f 38f
5:54 2 6 mph 1012.8mb 51f 38f
5:48 2 5 mph 1012.8mb 51f 38f
5:42 3 5 mph 1012.9mb 52f 38f
5:36 3 6 mph 1012.9mb 52f 38f
5:30 3 5 mph 1013.1mb 52f 38f
5:24 3 6 mph 1013.1mb 52f 38f
5:18 2 5 mph 1012.9mb 52f 38f
5:12 2 5 mph 1012.7mb 52f 38f
5:06 2 5 mph 1012.6mb 52f 38f
5:00 5 6 mph 1012.5mb 52f 38f
4:54 2 5 mph 1012.6mb 52f 38f
4:48 2 6 mph 1012.7mb 52f 38f
4:42 2 6 mph 1012.7mb 52f 38f
4:36 3 7 mph 1012.6mb 52f 38f
4:30 2 6 mph 1012.6mb 52f 38f
4:24 3 6 mph 1012.3mb 52f 38f
4:18 6 8 mph 1011.7mb 52f 38f
4:12 3 6 mph 1011.8mb 52f 38f
4:06 2 6 mph 1011.7mb 52f 38f
4:00 2 5 mph 1011.5mb 52f 38f
3:54 3 7 mph 1011.2mb 52f 38f
3:48 3 7 mph 1011mb 52f 38f
3:42 5 9 mph 1010.9mb 52f 38f
3:36 5 13 mph 1011mb 52f 38f
3:30 6 10 mph 1011.2mb 52f 38f
3:24 6 8 mph 1011.2mb 52f 38f
3:18 6 11 mph 1011.2mb 52f 38f
3:12 5 8 mph 1011.1mb 52f 38f
3:06 5 8 mph 1011.2mb 52f 38f
3:00 6 9 mph 1011.1mb 52f 38f
2:54 5 9 mph 1011.1mb 51f 38f
2:48 5 7 mph 1011.2mb 52f 38f
2:42 6 9 mph 1011.4mb 52f 38f
2:36 6 8 mph 1011.6mb 52f 38f
2:30 5 6 mph 1011.9mb 52f 38f
2:24 5 8 mph 1012.1mb 52f 38f
2:18 5 8 mph 1012.4mb 52f 38f
2:12 3 6 mph 1012.5mb 52f 38f
2:06 3 7 mph 1012.7mb 52f 38f
2:00 3 6 mph 1012.7mb 52f 38f
1:54 2 5 mph 1012.7mb 52f 38f
1:48 5 6 mph 1012.4mb 52f 38f
1:42 5 6 mph 1012.3mb 52f 38f
1:36 5 8 mph 1012.3mb 51f 38f
1:30 3 8 mph 1012.3mb 52f 38f
1:24 6 10 mph 1012.2mb 52f 38f
1:18 5 7 mph 1012.1mb 52f 38f
1:12 5 7 mph 1011.9mb 52f 38f
1:06 3 7 mph 1012.1mb 52f 38f
1:00 6 8 mph 1012.1mb 52f 38f
12:54 3 11 mph 1012mb 52f 38f
12:48 6 8 mph 1012mb 52f 38f
12:42 5 8 mph 1012.2mb 52f 38f
12:36 5 8 mph 1012.5mb 52f 38f
12:30 5 8 mph 1012.5mb 52f 38f
12:24 5 8 mph 1012.5mb 52f 38f
12:18 6 8 mph 1012.6mb 52f 38f
12:12 5 8 mph 1012.8mb 52f 38f
12:06 3 7 mph 1012.8mb 52f 38f
12:00 5 7 mph 1012.9mb 52f 39f
mar. 12/06 11:54 5 9 mph 1012.8mb 52f 39f
11:48 6 8 mph 1012.8mb 52f 39f
11:42 5 9 mph 1012.5mb 52f 39f
11:36 6 8 mph 1012.7mb 52f 39f
11:30 6 9 mph 1012.8mb 52f 39f
11:24 6 10 mph 1013.1mb 52f 39f
11:18 6 9 mph 1013.4mb 52f 39f
11:12 5 7 mph 1013.6mb 52f 39f
11:06 3 6 mph 1013.9mb 52f 39f
11:00 5 7 mph 1014mb 52f 39f
10:54 5 7 mph 1014.2mb 52f 39f
10:48 3 6 mph 1014.3mb 52f 39f
10:42 3 6 mph 1014.4mb 52f 39f
10:36 3 6 mph 1014.5mb 52f 39f
10:30 5 8 mph 1014.5mb 52f 39f
10:24 2 6 mph 1014.6mb 52f 39f
10:18 5 7 mph 1014.6mb 52f 39f
10:12 3 7 mph 1014.7mb 52f 40f
10:06 5 6 mph 1014.7mb 52f 39f
10:00 3 7 mph 1014.7mb 52f 39f
9:54 3 7 mph 1014.7mb 52f 39f
9:48 3 6 mph 1014.7mb 52f 40f
9:30 3 5 mph 1014.8mb 52f 40f
9:24 3 5 mph 1014.9mb 52f 41f
9:18 3 6 mph 1015mb 52f 41f
9:12 3 6 mph 1015mb 52f 41f
9:06 3 6 mph 1015mb 52f 41f
9:00 3 5 mph 1014.9mb 52f 41f
8:54 3 5 mph 1015mb 52f 41f
8:48 3 6 mph 1015.1mb 52f 41f
7:54 6 10 mph 1015.9mb 51f 42f
7:48 3 6 mph 1015.7mb 52f 42f
7:30 3 5 mph 1015.6mb 52f 42f
7:24 2 3 mph 1015.6mb 52f 42f
7:18 2 5 mph 1015.5mb 52f 42f
7:12 2 3 mph 1015.5mb 52f 42f
7:06 2 3 mph 1015.5mb 52f 42f
7:00 2 3 mph 1015.6mb 52f 42f
6:54 1 3 mph 1015.6mb 52f 42f
6:48 2 3 mph 1015.6mb 52f 42f
6:42 2 5 mph 1015.6mb 52f 42f
6:36 1 3 mph 1015.7mb 52f 42f
6:30 2 5 mph 1015.6mb 52f 42f
6:24 2 3 mph 1015.6mb 52f 42f
6:18 2 3 mph 1015.6mb 52f 42f
6:12 2 3 mph 1015.6mb 52f 42f
6:06 2 5 mph 1015.5mb 52f 42f
6:00 3
mph
1015.4mb 52f 42f
5:54 2 5 mph 1015.4mb 52f 42f
5:48 2 5 mph 1015.4mb 52f 42f
5:42 2 5 mph 1015.5mb 52f 42f
5:36 2 5 mph 1015.6mb 52f 43f
5:30 5 7 mph 1015.6mb 52f 43f
5:24 5 7 mph 1015.6mb 52f 43f
5:18 6 8 mph 1015.6mb 52f 43f
5:12 6 7 mph 1015.5mb 52f 43f
5:06 6 8 mph 1015.4mb 52f 43f
5:00 6 8 mph 1015.5mb 52f 43f
4:54 6 10 mph 1015.3mb 52f 43f
4:48 6 10 mph 1015.4mb 52f 43f
4:42 7 10 mph 1015.3mb 52f 43f
4:36 6 10 mph 1015.3mb 52f 43f
4:30 7 11 mph 1015.2mb 52f 44f
4:24 5 8 mph 1015.2mb 52f 44f
4:18 5 6 mph 1015.1mb 52f 44f
4:12 3 6 mph 1015.1mb 52f 44f
4:06 3 6 mph 1015.2mb 52f 44f
4:00 5 6 mph 1015.3mb 52f 44f
3:54 2 6 mph 1015.5mb 52f 44f
3:48 5 6 mph 1015.6mb 52f 44f
3:42 5
mph
1015.7mb 52f 44f
3:36 2 6 mph 1015.9mb 52f 44f
3:30 5 8 mph 1015.8mb 52f 44f
3:24 5 7 mph 1015.8mb 52f 44f
3:18 6 9 mph 1015.9mb 52f 44f
3:12 6 9 mph 1016.1mb 52f 44f
3:06 7 9 mph 1016.2mb 52f 44f
3:00 6 8 mph 1016.5mb 52f 44f
2:54 3 6 mph 1016.6mb 52f 44f
2:48 5 8 mph 1016.7mb 52f 45f
2:42 6 7 mph 1016.8mb 52f 44f
2:36 6 8 mph 1016.8mb 52f 45f
2:30 7 8 mph 1016.8mb 52f 45f
2:24 5 6 mph 1016.9mb 52f 45f
2:18 6 7 mph 1017mb 52f 45f
2:12 6 8 mph 1017mb 52f 45f
2:06 5 8 mph 1017mb 52f 45f
2:00 3 7 mph 1017mb 52f 45f
1:54 2 7 mph 1016.9mb 52f 46f
1:48 6 7 mph 1016.8mb 52f 46f
1:30 3 5 mph 1017.5mb 52f 46f
1:24 3 6 mph 1017.7mb 52f 45f
1:18 3 7 mph 1017.7mb 52f 45f
1:12 3 7 mph 1017.6mb 52f 45f
1:06 2 3 mph 1017.7mb 52f 45f
1:00  -  2 mph 1017.7mb 52f 46f
12:54 2 6 mph 1017.7mb 52f 45f
12:48 3 5 mph 1017.8mb 52f 45f
12:30 2 6 mph 1018mb 52f 45f
12:24 3 6 mph 1017.9mb 52f 45f
12:18 5 10 mph 1018mb 52f 45f
12:12 5 6 mph 1018.2mb 52f 44f
12:06 3 7 mph 1018.3mb 52f 45f
12:00 6 8 mph 1018.4mb 52f 44f
11:54 3 6 mph 1018.6mb 52f 45f
11:48 5 7 mph 1018.7mb 52f 45f
11:42 3 6 mph 1019.1mb 52f 45f
11:36 5 6 mph 1019mb 52f 44f
11:30 3 6 mph 1019mb 52f 44f
11:24 3 6 mph 1019.2mb 52f 44f
11:18 5 7 mph 1019.2mb 52f 44f
11:12 3 5 mph 1019.3mb 52f 43f
11:06 3 7 mph 1019.4mb 52f 43f
11:00 5 6 mph 1019.5mb 52f 43f
10:54 3 5 mph 1019.7mb 52f 43f
10:48 2 5 mph 1019.8mb 52f 43f
10:42 2 3 mph 1020.1mb 52f 43f
10:36 1 2 mph 1020.3mb 52f 43f
10:30 2 3 mph 1020.3mb 52f 42f
10:24 2
mph
1020.5mb 52f 42f
10:18 2 3 mph 1020.7mb 52f 42f
10:12 2
mph
1020.8mb 52f 42f
10:06 1 2 mph 1020.8mb 52f 42f
10:00  -  3 mph 1020.7mb 52f 40f
9:54 2 5 mph 1020.6mb 52f 40f
9:48 2 3 mph 1020.5mb 52f 40f
9:42 2 5 mph 1020.6mb 52f 40f
9:36 3
mph
1020.7mb 52f 40f
9:30 2 3 mph 1020.5mb 52f 40f
9:24 2 5 mph 1020.5mb 52f 39f
9:18 3 5 mph 1020.7mb 52f 38f
9:12 5 6 mph 1020.6mb 52f 38f
9:06 1 3 mph 1020.5mb 52f 37f
9:00 2 3 mph 1020.3mb 52f 37f
8:54 2 3 mph 1020.3mb 52f 36f
8:48 2 5 mph 1020.2mb 52f 36f
8:42 3
mph
1020mb 52f 35f
8:36 3
mph
1019.8mb 52f 35f
8:30 2
mph
1019.9mb 52f 35f
8:24 2
mph
1019.8mb 52f 35f
8:18 1 2 mph 1019.7mb 52f 35f
8:12 1 2 mph 1019.7mb 52f 35f
8:06  -  1 mph 1019.8mb 52f 36f
8:00  -  1 mph 1019.8mb 52f 35f
7:54  -  2 mph 1019.8mb 52f 34f
7:48 1 2 mph 1019.8mb 51f 34f
7:42 2 3 mph 1019.8mb 51f 33f
7:36 3
mph
1019.8mb 52f 33f
7:30 2 3 mph 1019.9mb 51f 33f
7:24 1 2 mph 1019.9mb 51f 33f
7:18 2 3 mph 1019.9mb 51f 33f
7:12 3
mph
1019.8mb 51f 33f
7:06 2 3 mph 1019.8mb 51f 33f
7:00 3 5 mph 1019.8mb 51f 33f
6:54 2 3 mph 1019.9mb 52f 33f
6:48 2 6 mph 1020mb 52f 33f
6:42 3 7 mph 1019.9mb 52f 34f
6:36 3 7 mph 1019.9mb 52f 34f
6:30 5 7 mph 1019.8mb 52f 34f
6:24 5 6 mph 1019.7mb 52f 33f
6:18 5 7 mph 1019.8mb 52f 33f
6:12 3 6 mph 1019.7mb 52f 33f
6:06 5 7 mph 1019.7mb 52f 33f
6:00 5 6 mph 1019.6mb 52f 34f
5:54 2 6 mph 1019.5mb 52f 33f
5:48 3 5 mph 1019.5mb 52f 33f
5:42 2 3 mph 1019.6mb 52f 33f
5:36 2 3 mph 1019.6mb 52f 34f
5:30 3
mph
1019.6mb 52f 34f
5:24 1 2 mph 1019.6mb 52f 33f
5:18 2
mph
1019.6mb 52f 33f
5:12 1 2 mph 1019.7mb 52f 34f
5:06  -  1 mph 1019.7mb 52f 34f
5:00  -  mph 1019.6mb 52f 34f
4:54  -  1 mph 1019.5mb 52f 34f
4:48  -  1 mph 1019.5mb 52f 34f
4:42 1 2 mph 1019.5mb 52f 34f
4:36  -  1 mph 1019.4mb 52f 34f
4:30  -  mph 1019.4mb 52f 34f
4:24  -  1 mph 1019.4mb 52f 34f
4:18  -  1 mph 1019.3mb 52f 34f
4:12  -  2 mph 1019.4mb 52f 34f
4:06 2 3 mph 1019.3mb 52f 35f
4:00  -  3 mph 1019.1mb 52f 35f
3:54 2 3 mph 1019mb 52f 35f
3:48 1 5 mph 1018.9mb 52f 35f
3:42 2
mph
1019mb 52f 35f
3:36 1 2 mph 1019.2mb 52f 35f
3:30 1 3 mph 1018.9mb 52f 35f
3:24 2 3 mph 1018.9mb 52f 35f
3:18 2 5 mph 1019.1mb 52f 35f
3:12 2 5 mph 1019.1mb 52f 35f
3:06 2
mph
1019.1mb 52f 35f
3:00 2 5 mph 1019.3mb 52f 36f
2:54 1 3 mph 1019.2mb 52f 36f
2:48  -  3 mph 1019.2mb 52f 35f
2:42 1 3 mph 1019.1mb 52f 35f
2:36 2 6 mph 1019.1mb 52f 36f
2:30 3 6 mph 1019mb 52f 36f
2:24 2 3 mph 1019mb 52f 35f
2:18 1 2 mph 1019mb 52f 36f
2:12 2 5 mph 1018.9mb 52f 36f
2:06 1 3 mph 1018.9mb 52f 36f
2:00 1 5 mph 1018.9mb 52f 36f
1:54 5 6 mph 1018.8mb 52f 37f
1:48 2 7 mph 1018.8mb 52f 36f
1:42 5 6 mph 1018.7mb 52f 37f
1:36 2 6 mph 1018.7mb 52f 36f
1:30 5 6 mph 1018.7mb 52f 37f
1:24 2 5 mph 1018.5mb 52f 37f
1:18 2 6 mph 1018.4mb 52f 37f
1:12 2 5 mph 1018.4mb 52f 37f
1:06 2 5 mph 1018.3mb 52f 37f
1:00 2 5 mph 1018.1mb 52f 37f
12:54 2 8 mph 1018mb 52f 37f
12:48 6 8 mph 1017.9mb 52f 38f
12:42 5 7 mph 1017.9mb 52f 37f
12:36 3 6 mph 1017.9mb 52f 37f
12:30 2 6 mph 1017.8mb 52f 37f
12:24 5 6 mph 1017.7mb 51f 37f
12:18 3 6 mph 1017.7mb 51f 37f
12:12 5 6 mph 1017.5mb 51f 38f
12:06 5 6 mph 1017.5mb 51f 37f
12:00 5 6 mph 1017.5mb 52f 37f
lun. 12/05 11:54 3 6 mph 1017.5mb 52f 37f
11:48 2 5 mph 1017.6mb 52f 37f
11:42 2 6 mph 1017.4mb 52f 37f
11:36 5 7 mph 1017.2mb 51f 38f
11:30 6 7 mph 1017.2mb 51f 38f
11:24 6 9 mph 1017.3mb 51f 38f
11:18 7 8 mph 1017.4mb 52f 38f
11:12 6
mph
1017.4mb 52f 38f
11:06 5 6 mph 1017.4mb 52f 38f
11:00 3 5 mph 1017.5mb 52f 38f
10:54 3 5 mph 1017.4mb 52f 38f
10:48 2 3 mph 1017.4mb 52f 38f
10:42 2 6 mph 1017.3mb 52f 38f
10:36 3 7 mph 1017.2mb 52f 38f
10:30 3 7 mph 1017.1mb 52f 38f
10:24 5 6 mph 1017.2mb 52f 38f
10:18 3 6 mph 1017.2mb 52f 39f
10:12 3 5 mph 1017.2mb 52f 39f
10:06 2 3 mph 1017.1mb 52f 38f
10:00 2 5 mph 1017.2mb 52f 39f
9:54 2 5 mph 1017.2mb 52f 38f
9:48 2 6 mph 1017.1mb 52f 38f
9:42 3 6 mph 1017.1mb 52f 38f
9:36 3 6 mph 1017mb 52f 39f
9:30 3 6 mph 1017.1mb 52f 39f
9:24 3 6 mph 1017.2mb 52f 39f
9:18 3 6 mph 1017mb 52f 39f
9:12 2 5 mph 1017mb 52f 39f
9:06 3 6 mph 1017mb 52f 39f
9:00 3 6 mph 1016.8mb 52f 40f
8:54 3 6 mph 1016.8mb 52f 40f
8:48 2 3 mph 1016.6mb 51f 39f
8:42 2 3 mph 1016.6mb 52f 39f
8:36 1 2 mph 1016.7mb 51f 39f
8:30 3
mph
1016.6mb 51f 40f
8:24 2 3 mph 1016.5mb 51f 40f
8:18 1 5 mph 1016.5mb 51f 39f
8:12 3 5 mph 1016.4mb 50f 40f
8:06 2 5 mph 1016.4mb 50f 40f
8:00 3 6 mph 1016.4mb 50f 40f
7:54 3 6 mph 1016.4mb 50f 40f
7:48 3 5 mph 1016.3mb 51f 40f
7:42 2 5 mph 1016.3mb 51f 40f
7:36 3 5 mph 1016.3mb 51f 40f
7:30 2 5 mph 1016.1mb 51f 40f
7:24 2 6 mph 1015.9mb 51f 41f
7:18 3 7 mph 1015.8mb 51f 40f
7:12 2 6 mph 1015.7mb 51f 40f
7:06 3 6 mph 1015.6mb 51f 41f
7:00 2 9 mph 1015.5mb 51f 41f
6:54 2 7 mph 1015.5mb 51f 41f
6:48 3 7 mph 1015.4mb 51f 41f
6:42 3 7 mph 1015.4mb 51f 41f
6:36 3 7 mph 1015.3mb 51f 41f
6:30 3 7 mph 1015.3mb 51f 42f
6:24 5 9 mph 1015.4mb 52f 42f
6:18 3 7 mph 1015.4mb 52f 42f
6:12 3 8 mph 1015.3mb 52f 42f
6:06 3 8 mph 1015.1mb 52f 42f
6:00 3 7 mph 1015.2mb 52f 41f
5:54 5 7 mph 1015.3mb 52f 41f
5:48 3 6 mph 1015.1mb 52f 41f
5:42 2 5 mph 1015.2mb 51f 41f
5:36 3 8 mph 1015.2mb 52f 42f
5:30 3 6 mph 1015.1mb 52f 42f
5:24 2 3 mph 1015.2mb 52f 42f
5:18  -  3 mph 1015.1mb 52f 42f
5:12 3 5 mph 1015.1mb 52f 42f
5:06 3 5 mph 1015.1mb 52f 42f
5:00 3 5 mph 1014.8mb 52f 43f
4:54 2 3 mph 1014.9mb 52f 43f
4:48 2 3 mph 1014.9mb 52f 43f
4:42 2 3 mph 1014.9mb 52f 43f
4:36 2 3 mph 1014.6mb 52f 43f
4:30 2 5 mph 1014.4mb 52f 43f
4:24 2 3 mph 1014.3mb 52f 43f
4:18 1 3 mph 1014.2mb 52f 43f
4:12 2 5 mph 1014.2mb 51f 44f
4:06 2 5 mph 1014.2mb 52f 44f
4:00 1 5 mph 1014mb 52f 45f
3:54 3 7 mph 1014mb 52f 45f
3:48 6 8 mph 1014mb 52f 45f
3:42 5 8 mph 1014.1mb 52f 46f
3:36 5 10 mph 1014mb 52f 46f
3:30 6 11 mph 1014mb 52f 46f
3:24 5 11 mph 1013.9mb 52f 46f
3:18 5 11 mph 1013.9mb 52f 46f
3:12 6 9 mph 1013.7mb 52f 46f
3:06 7 11 mph 1013.7mb 52f 46f
3:00 9 11 mph 1013.7mb 52f 46f
2:54 7 10 mph 1013.6mb 52f 45f
2:48 7 11 mph 1013.6mb 52f 45f
2:42 5 8 mph 1013.5mb 52f 45f
2:36 5 11 mph 1013.5mb 52f 45f
2:30 9 15 mph 1013.4mb 52f 45f
2:24 9 14 mph 1013.5mb 52f 45f
2:18 7 15 mph 1013.4mb 52f 44f
2:12 8 11 mph 1013.3mb 52f 44f
2:06 8 13 mph 1013.3mb 52f 44f
2:00 10 15 mph 1013.1mb 52f 44f
1:54 7 10 mph 1013.2mb 52f 44f
1:48 3 14 mph 1013.3mb 52f 44f
1:42 6 13 mph 1013.2mb 52f 44f
1:36 8 15 mph 1013.2mb 52f 44f
1:30 8 10 mph 1013.2mb 52f 44f
1:24 7 13 mph 1013.2mb 52f 45f
1:18 7 13 mph 1013.2mb 52f 44f
1:12 9 15 mph 1013mb 52f 42f
1:06 8 16 mph 1012.9mb 52f 42f
1:00 2 3 mph 1013mb 52f 40f
12:54 2 6 mph 1013mb 52f 39f
12:48 5 6 mph 1013.1mb 52f 38f
12:42 3 5 mph 1013.1mb 52f 39f
12:36 3 5 mph 1013.2mb 52f 39f
12:30 5
mph
1013.3mb 52f 38f
12:24 3 6 mph 1013.5mb 52f 38f
12:18 5 6 mph 1013.6mb 52f 37f
12:12 5 7 mph 1013.6mb 52f 37f
12:06 5 6 mph 1013.7mb 52f 37f
12:00 3 7 mph 1013.6mb 52f 37f
11:54 3 6 mph 1013.8mb 52f 37f
11:48 3 6 mph 1014mb 52f 37f
11:42 3 5 mph 1014.1mb 52f 37f
11:36 5 6 mph 1014mb 52f 36f
11:30 5 6 mph 1014.1mb 52f 36f
11:24 3 5 mph 1014.1mb 52f 36f
11:18 2 5 mph 1014.1mb 52f 36f
11:12 1 5 mph 1014.3mb 52f 37f
11:06 5 7 mph 1014.6mb 52f 36f
11:00 6 7 mph 1014.8mb 52f 36f
10:54 3 8 mph 1014.9mb 52f 36f
10:48 6 7 mph 1015.1mb 52f 35f
10:42 6 7 mph 1015.1mb 52f 35f
10:36 6 8 mph 1015.2mb 52f 35f
10:30 5 7 mph 1015.3mb 52f 35f
10:24 5 7 mph 1015.4mb 52f 35f
10:18 5 7 mph 1015.5mb 52f 35f
10:12 3 6 mph 1015.7mb 52f 35f
10:06 5 7 mph 1015.7mb 52f 35f
10:00 5 7 mph 1015.9mb 52f 35f
9:54 5 7 mph 1015.9mb 52f 35f
9:48 5 7 mph 1016.1mb 52f 35f
9:42 5 9 mph 1016.2mb 52f 34f
9:36 6 8 mph 1016.3mb 52f 34f
9:30 5 8 mph 1016.4mb 52f 35f
9:24 6
mph
1016.3mb 52f 34f
9:18 5 6 mph 1016.1mb 52f 34f
9:12 3 6 mph 1016.1mb 52f 34f
9:06 5 7 mph 1016mb 52f 34f
9:00 5 8 mph 1016.1mb 52f 34f
8:54 6 8 mph 1016.2mb 52f 34f
8:48 5 8 mph 1016.2mb 52f 34f
8:42 5 7 mph 1016.1mb 52f 34f
8:36 6 9 mph 1016.2mb 52f 33f
8:30 6 8 mph 1016.4mb 52f 33f
8:24 5 8 mph 1016.4mb 52f 33f
8:18 5 6 mph 1016.4mb 52f 33f
8:12 3 6 mph 1016.4mb 52f 33f
8:06 5 6 mph 1016.4mb 52f 33f
8:00 5 8 mph 1016.3mb 52f 33f
7:54 6 9 mph 1016.3mb 52f 33f
7:48 7 9 mph 1016.6mb 52f 33f
7:42 6 9 mph 1016.7mb 52f 33f
7:36 7 9 mph 1016.8mb 52f 33f
7:30 7 9 mph 1017mb 52f 33f
7:24 6 10 mph 1017mb 52f 33f
7:18 7 10 mph 1017mb 52f 33f
7:12 8 10 mph 1017mb 52f 33f
7:06 7 9 mph 1016.9mb 52f 33f
7:00 6 9 mph 1016.7mb 52f 33f
6:54 6 7 mph 1016.9mb 52f 33f
6:48 5 7 mph 1016.9mb 52f 33f
6:42 5 7 mph 1016.9mb 52f 33f
6:36 5 6 mph 1016.8mb 52f 33f
6:30 5 7 mph 1016.8mb 52f 33f
6:24 5 7 mph 1016.8mb 52f 33f
6:18 3 7 mph 1016.8mb 52f 33f
6:12 6 8 mph 1017.2mb 52f 33f
6:06 6 7 mph 1017.3mb 52f 33f
6:00 5 7 mph 1017.4mb 52f 33f
5:54 7 9 mph 1017.5mb 52f 33f
5:48 8 9 mph 1017.8mb 52f 33f
5:42 7 10 mph 1017.7mb 52f 33f
5:36 7 10 mph 1017.7mb 52f 33f
5:30 9 10 mph 1017.8mb 52f 33f
5:24 7 11 mph 1017mb 52f 33f
5:18 7 9 mph 1017.5mb 52f 33f
5:12 7 8 mph 1018mb 52f 33f
5:06 6 9 mph 1018.2mb 52f 33f
5:00 6 8 mph 1018.4mb 52f 33f
4:54 3 8 mph 1018.4mb 52f 34f
4:48 5 7 mph 1018.4mb 52f 33f
4:42 3 7 mph 1018.9mb 52f 34f
4:36 6 7 mph 1019.2mb 52f 34f
4:30 6 8 mph 1019mb 52f 33f
4:24 6 7 mph 1018.9mb 52f 33f
4:18 3 6 mph 1018.8mb 52f 34f
4:12 7 9 mph 1019.5mb 52f 34f
4:06 7 9 mph 1019.8mb 52f 33f
4:00 6 9 mph 1019.6mb 52f 34f
3:54 5 9 mph 1019.4mb 52f 34f
3:48 6 10 mph 1019.5mb 52f 34f
3:42 3 7 mph 1019.5mb 52f 34f
3:36 5 9 mph 1019.5mb 52f 34f
3:30 6 8 mph 1019.7mb 52f 34f
3:24 2 7 mph 1019.7mb 52f 34f
3:18 6 7 mph 1019.6mb 52f 34f
3:12 3 5 mph 1019.4mb 52f 35f
3:06 2 5 mph 1019.3mb 52f 35f
3:00 2 5 mph 1019.3mb 52f 34f
2:54 2 5 mph 1019.3mb 52f 34f
2:48 5 6 mph 1019.2mb 52f 34f
2:42 2 5 mph 1019mb 52f 34f
2:36 2 6 mph 1018.8mb 52f 34f
2:30 5 6 mph 1018.9mb 52f 34f
2:24 2 6 mph 1019.5mb 52f 34f
2:18 2 5 mph 1019.8mb 52f 34f
2:12 3 5 mph 1020mb 52f 34f
2:06 3 5 mph 1020mb 52f 34f
2:00 2 5 mph 1020mb 52f 34f
1:54 5 6 mph 1020.2mb 52f 34f
1:48 3 7 mph 1020.2mb 52f 33f
1:42 5 7 mph 1020.3mb 52f 34f
1:36 5 6 mph 1020.3mb 52f 34f
1:30 3 6 mph 1020.4mb 52f 33f
1:24 5 7 mph 1020.4mb 52f 33f
1:18 3 7 mph 1020.5mb 52f 33f
1:12 6 7 mph 1020.6mb 52f 33f
1:06 6 7 mph 1020.5mb 52f 34f
1:00 5 7 mph 1020.5mb 52f 34f
12:54 5 7 mph 1020.5mb 52f 33f
12:48 6 8 mph 1020.5mb 52f -
12:42 6 7 mph 1020.6mb 52f -
12:36 6 8 mph 1020.6mb 52f -
12:30 6 8 mph 1020.5mb 52f 33f
12:24 6 7 mph 1020.7mb 52f 33f
12:18 6 7 mph 1020.8mb 52f 33f
12:12 6 7 mph 1020.9mb 52f 33f
12:06 3 7 mph 1021mb 52f 33f
12:00 6 7 mph 1020.9mb 52f 33f
dim. 12/04 11:54 5 6 mph 1020.9mb 52f 33f
11:48 6 7 mph 1020.9mb 52f 33f
11:42 6 7 mph 1020.9mb 52f 33f
11:36 5 7 mph 1020.9mb 52f 33f
11:30 6 8 mph 1021mb 52f 33f
11:24 6 7 mph 1021.2mb 52f 33f
11:18 6 7 mph 1021.3mb 52f 34f
11:12 5 7 mph 1021.2mb 52f 33f
11:06 3 7 mph 1021.4mb 52f 33f
11:00 6 7 mph 1021.5mb 52f 33f
10:54 6 7 mph 1021.4mb 52f 33f
10:48 6
mph
1021.3mb 52f 33f
10:42 5 7 mph 1021.3mb 52f 33f
10:36 6 7 mph 1021.4mb 52f 33f
10:30 6 8 mph 1021.4mb 52f 33f
10:24 6 7 mph 1021.5mb 52f 33f
10:18 5 6 mph 1021.5mb 52f 34f
10:12 5 6 mph 1021.6mb 52f 34f
10:06 5 6 mph 1021.7mb 52f 34f
10:00 5 6 mph 1021.6mb 52f 33f
9:54 3 6 mph 1021.6mb 52f 34f
9:48 5 7 mph 1021.7mb 52f 34f
9:42 3 6 mph 1021.9mb 52f 34f
9:36 3 5 mph 1022mb 52f 34f
9:30 3 6 mph 1022mb 53f 34f
9:24 5 6 mph 1022.2mb 53f 34f
9:18 3 6 mph 1022.3mb 53f 34f
9:12 5 6 mph 1022.4mb 53f 34f
9:06 3 5 mph 1022.3mb 52f 34f
9:00 3 5 mph 1022.3mb 52f 34f
8:54 3 5 mph 1022.4mb 52f 34f
8:48 3
mph
1022.2mb 52f 33f
8:42 3
mph
1022.4mb 52f 33f
8:36 3 6 mph 1022.5mb 52f 33f
8:30 5 7 mph 1022.5mb 53f 34f
8:24 5 6 mph 1022.4mb 52f 34f
8:18 5 6 mph 1022.5mb 52f 34f
8:12 3 6 mph 1022.5mb 52f 34f
8:06 6 7 mph 1022.3mb 52f 34f
8:00 5 7 mph 1022.4mb 52f 35f
7:54 5 7 mph 1022.4mb 52f 35f
7:48 2 3 mph 1022.6mb 52f 35f
7:42 3 5 mph 1022.6mb 52f 35f
7:36 3 5 mph 1022.6mb 52f 35f
7:30 2 3 mph 1022.6mb 52f 35f
7:24 2 3 mph 1022.7mb 52f 35f
7:18 1 2 mph 1022.8mb 52f 35f
7:12 2 3 mph 1022.8mb 52f 35f
7:06 2 3 mph 1022.7mb 52f 35f
7:00 3
mph
1022.7mb 52f 35f
6:54 1 3 mph 1022.8mb 52f 35f
6:48 1 3 mph 1022.8mb 52f 36f
6:42 3
mph
1022.7mb 52f 36f
6:36 2 3 mph 1022.7mb 52f 35f
6:30 2
mph
1022.7mb 51f 36f
6:24 1 3 mph 1022.6mb 51f 36f
6:18 3
mph
1022.5mb 51f 36f
6:12 2
mph
1022.5mb 51f 36f
6:06 2 3 mph 1022.5mb 52f 37f
6:00 2 3 mph 1022.5mb 52f 37f
5:54 1 2 mph 1022.4mb 52f 37f
5:48  -  1 mph 1022.4mb 52f 37f
5:42  -  1 mph 1022.4mb 52f 37f
5:36 1 2 mph 1022.4mb 52f 37f
5:30 2 3 mph 1022.3mb 52f 38f
5:24 1 2 mph 1022.2mb 52f 38f
5:18 1 3 mph 1022.2mb 52f 38f
5:12 2 3 mph 1022.1mb 52f 38f
5:06 1 3 mph 1022mb 52f 38f
5:00 1 3 mph 1022.1mb 52f 38f
4:54 2 3 mph 1022.3mb 52f 39f
4:48 2
mph
1022.2mb 52f 39f
4:42 2
mph
1022.1mb 52f 39f
4:36 1 3 mph 1022mb 52f 39f
4:30 2 3 mph 1022mb 52f 39f
4:24 2 5 mph 1021.9mb 52f 39f
4:18 1 3 mph 1021.8mb 52f 39f
4:12 2 3 mph 1022mb 52f 40f
4:06 2 5 mph 1022mb 52f 40f
4:00 2 7 mph 1021.8mb 52f 41f
3:54 3 6 mph 1021.7mb 52f 41f
3:48 3 7 mph 1021.7mb 52f 41f
3:42 2 7 mph 1021.7mb 52f 42f
3:36 5 9 mph 1021.7mb 52f 41f
3:30 5 9 mph 1021.6mb 52f 41f
3:24 7 8 mph 1021.6mb 52f 42f
3:18 5 10 mph 1021.5mb 52f 42f
3:12 8 10 mph 1021.4mb 52f 42f
3:06 3 7 mph 1021.5mb 52f 42f
3:00 3 9 mph 1021.5mb 52f 42f
2:54 7 10 mph 1021.6mb 52f 42f
2:48 5 10 mph 1021.4mb 52f 42f
2:42 5 10 mph 1021.4mb 52f 42f
2:36 5 10 mph 1021.3mb 52f 42f
2:30 6 11 mph 1021.5mb 52f 42f
2:24 3 7 mph 1021.5mb 52f 42f
2:18 7 11 mph 1021.6mb 52f 42f
2:12 6 11 mph 1021.6mb 52f 42f
2:06 6 8 mph 1021.5mb 52f 42f
2:00 3 7 mph 1021.5mb 52f 43f
1:54 3 11 mph 1021.3mb 52f 42f
1:48 6 9 mph 1021.3mb 52f 42f
1:42 6 9 mph 1021.5mb 52f 42f
1:36 5 11 mph 1021.5mb 52f 42f
1:30 5 9 mph 1021.4mb 52f 42f
1:24 5 9 mph 1021.5mb 52f 42f
1:18 6 10 mph 1021.4mb 52f 42f
1:12 8 11 mph 1021.2mb 52f 41f
1:06 7 11 mph 1021.3mb 52f 41f
1:00 3 10 mph 1021.3mb 52f 42f
12:54 7 9 mph 1021.2mb 52f 41f
12:48 3 9 mph 1021.2mb 52f 42f
12:42 8 10 mph 1021.4mb 53f 41f
12:36 3 9 mph 1021.4mb 53f 42f
12:30 5 13 mph 1021.5mb 53f 41f
12:24 6 10 mph 1021.6mb 53f 41f
12:18 7 10 mph 1021.7mb 53f 41f
12:12 3 6 mph 1021.8mb 53f 41f
12:06 3 7 mph 1021.9mb 53f 41f
12:00 3 8 mph 1021.9mb 53f 41f
11:54 8 10 mph 1021.9mb 53f 40f
11:48 3 11 mph 1021.8mb 53f 41f
11:42 5 9 mph 1021.8mb 53f 40f
11:36 6 9 mph 1021.8mb 53f 40f
11:30 3 9 mph 1021.8mb 53f 40f
11:24 6 10 mph 1021.9mb 52f 40f
11:18 5 13 mph 1021.9mb 52f 40f
11:12 6 13 mph 1022mb 53f 40f
11:06 8 13 mph 1022mb 52f 39f
11:00 9 11 mph 1022.1mb 52f 39f
10:54 7 9 mph 1022.3mb 52f 39f
10:48 6 10 mph 1022.4mb 52f 39f
10:42 6 10 mph 1022.3mb 52f 39f
10:36 6 10 mph 1022.4mb 52f 39f
10:30 8 14 mph 1022.5mb 52f 38f
10:24 8 13 mph 1022.5mb 52f 38f
10:18 6 11 mph 1022.5mb 52f 39f
10:12 7 14 mph 1022.4mb 53f 38f
10:06 10 17 mph 1022.5mb 53f 38f
10:00 10 15 mph 1022.5mb 53f 38f
9:54 9 13 mph 1022.5mb 53f 38f
9:48 6 10 mph 1022.5mb 53f 38f
9:42 3 10 mph 1022.7mb 53f 39f
9:36 9 11 mph 1022.6mb 53f 38f
9:30 6 11 mph 1022.7mb 53f 38f
9:24 8 11 mph 1022.7mb 53f 37f
9:18 6 10 mph 1022.6mb 53f 38f
9:12 7 11 mph 1022.5mb 53f 37f
9:06 7 10 mph 1022.5mb 53f 37f
9:00 6 9 mph 1022.4mb 53f 37f
8:54 3 8 mph 1022.2mb 53f 37f
8:48 6 7 mph 1022.3mb 53f 37f
8:42 3 9 mph 1022.3mb 53f 37f
8:36 7 10 mph 1022.2mb 53f 36f
8:30 5 7 mph 1022.2mb 53f 36f
8:24 3 6 mph 1022.3mb 53f 37f
8:18 1 8 mph 1022.2mb 53f 36f
8:12 3 7 mph 1022.3mb 53f 36f
8:06 2 7 mph 1022.4mb 53f 36f
8:00 3 8 mph 1022.3mb 53f 35f
7:54 2 5 mph 1022.3mb 53f 35f
7:48  -  5 mph 1022.1mb 53f 35f
7:42 2 6 mph 1022.1mb 53f 34f
7:36 2 6 mph 1022.2mb 53f 34f
7:30 2 3 mph 1022.1mb 53f 34f
7:24 1 2 mph 1022mb 53f 33f
7:18  -  2 mph 1021.8mb 52f 33f
7:12 1 3 mph 1021.8mb 52f 33f
7:06 1 3 mph 1021.7mb 52f 33f
7:00 2 3 mph 1021.5mb 52f 33f
6:54 2 5 mph 1021.5mb 52f 33f
6:48 2 5 mph 1021.4mb 52f 33f
6:42 3 7 mph 1021.5mb 52f 34f
6:36 3 6 mph 1021.5mb 52f 34f
6:30 2 6 mph 1021.4mb 52f 34f
6:24 3 6 mph 1021.4mb 52f 34f
6:18 3 6 mph 1021.4mb 52f 33f
6:12 2 5 mph 1021.5mb 52f 33f
6:06 2 3 mph 1021.5mb 53f 33f
6:00 2 6 mph 1021.4mb 52f 33f
5:54 3 5 mph 1021.4mb 52f 33f
5:48 3 6 mph 1021.5mb 52f 34f
5:42 3 6 mph 1021.4mb 52f 34f
5:36 3 6 mph 1021.3mb 52f 34f
5:30 5 6 mph 1021.2mb 52f 34f
5:24 3 6 mph 1021.1mb 53f 34f
5:18 3 7 mph 1021mb 53f 34f
5:12 3 7 mph 1021mb 52f 34f
5:06 5 9 mph 1021mb 53f 34f
5:00 5 9 mph 1021mb 52f 34f
4:54 3 8 mph 1020.9mb 52f 34f
4:48 2 6 mph 1020.8mb 52f 34f
4:42 5 8 mph 1020.9mb 52f 34f
4:36 2 6 mph 1020.9mb 52f 35f
4:30 5 7 mph 1020.9mb 52f 35f
4:24 5 8 mph 1021.1mb 52f 35f